sensor_id;sensor_type;location;lat;lon;timestamp;P1;durP1;ratioP1;P2;durP2;ratioP2
15183;SDS011;7693;49.266;7.104;2023-07-16T04:39:04;7.20;;;3.83;;
15183;SDS011;7693;49.266;7.104;2023-07-16T04:41:30;7.05;;;4.00;;
15183;SDS011;7693;49.266;7.104;2023-07-16T04:43:56;4.30;;;3.90;;
15183;SDS011;7693;49.266;7.104;2023-07-16T04:46:21;4.70;;;3.75;;
15183;SDS011;7693;49.266;7.104;2023-07-16T04:48:47;6.32;;;3.33;;
15183;SDS011;7693;49.266;7.104;2023-07-16T04:51:13;5.00;;;3.30;;
15183;SDS011;7693;49.266;7.104;2023-07-16T04:53:38;4.13;;;3.33;;
15183;SDS011;7693;49.266;7.104;2023-07-16T04:56:04;3.63;;;3.30;;
15183;SDS011;7693;49.266;7.104;2023-07-16T04:58:35;5.47;;;3.20;;
15183;SDS011;7693;49.266;7.104;2023-07-16T05:01:03;4.20;;;3.80;;
15183;SDS011;7693;49.266;7.104;2023-07-16T05:03:28;5.20;;;3.28;;
15183;SDS011;7693;49.266;7.104;2023-07-16T05:05:54;4.38;;;3.67;;
15183;SDS011;7693;49.266;7.104;2023-07-16T05:08:20;7.60;;;3.88;;
15183;SDS011;7693;49.266;7.104;2023-07-16T05:10:45;8.27;;;3.80;;
15183;SDS011;7693;49.266;7.104;2023-07-16T05:13:11;5.30;;;4.10;;
15183;SDS011;7693;49.266;7.104;2023-07-16T05:15:37;5.10;;;3.83;;
15183;SDS011;7693;49.266;7.104;2023-07-16T05:18:02;5.80;;;3.90;;
15183;SDS011;7693;49.266;7.104;2023-07-16T05:20:28;4.10;;;3.75;;
15183;SDS011;7693;49.266;7.104;2023-07-16T05:22:54;4.60;;;4.20;;
15183;SDS011;7693;49.266;7.104;2023-07-16T05:25:20;5.53;;;4.10;;
15183;SDS011;7693;49.266;7.104;2023-07-16T05:27:45;6.30;;;4.07;;
15183;SDS011;7693;49.266;7.104;2023-07-16T05:30:11;8.40;;;3.92;;
15183;SDS011;7693;49.266;7.104;2023-07-16T05:32:37;4.15;;;3.83;;
15183;SDS011;7693;49.266;7.104;2023-07-16T05:35:02;5.40;;;3.83;;
15183;SDS011;7693;49.266;7.104;2023-07-16T05:37:28;5.13;;;4.35;;
15183;SDS011;7693;49.266;7.104;2023-07-16T05:39:53;8.05;;;4.22;;
15183;SDS011;7693;49.266;7.104;2023-07-16T05:42:19;5.90;;;4.28;;
15183;SDS011;7693;49.266;7.104;2023-07-16T05:44:46;6.30;;;4.15;;
15183;SDS011;7693;49.266;7.104;2023-07-16T05:47:13;7.13;;;4.10;;
15183;SDS011;7693;49.266;7.104;2023-07-16T05:49:38;6.72;;;4.05;;
15183;SDS011;7693;49.266;7.104;2023-07-16T05:52:04;7.32;;;4.07;;
15183;SDS011;7693;49.266;7.104;2023-07-16T05:54:30;4.05;;;3.72;;
15183;SDS011;7693;49.266;7.104;2023-07-16T05:56:56;4.65;;;4.03;;
15183;SDS011;7693;49.266;7.104;2023-07-16T05:59:22;8.02;;;3.90;;
15183;SDS011;7693;49.266;7.104;2023-07-16T06:01:48;5.00;;;3.45;;
15183;SDS011;7693;49.266;7.104;2023-07-16T06:04:13;5.45;;;3.70;;
15183;SDS011;7693;49.266;7.104;2023-07-16T06:06:39;4.38;;;3.60;;
15183;SDS011;7693;49.266;7.104;2023-07-16T06:09:04;3.60;;;3.30;;
15183;SDS011;7693;49.266;7.104;2023-07-16T06:11:30;5.43;;;3.38;;
15183;SDS011;7693;49.266;7.104;2023-07-16T06:13:55;5.97;;;3.67;;
15183;SDS011;7693;49.266;7.104;2023-07-16T06:16:21;7.35;;;3.72;;
15183;SDS011;7693;49.266;7.104;2023-07-16T06:18:50;5.15;;;3.30;;
15183;SDS011;7693;49.266;7.104;2023-07-16T06:21:15;5.72;;;3.75;;
15183;SDS011;7693;49.266;7.104;2023-07-16T06:23:41;5.82;;;3.38;;
15183;SDS011;7693;49.266;7.104;2023-07-16T06:26:10;6.35;;;3.38;;
15183;SDS011;7693;49.266;7.104;2023-07-16T06:28:36;5.43;;;3.58;;
15183;SDS011;7693;49.266;7.104;2023-07-16T06:31:01;7.20;;;3.40;;
15183;SDS011;7693;49.266;7.104;2023-07-16T06:33:27;4.13;;;3.15;;
15183;SDS011;7693;49.266;7.104;2023-07-16T06:35:53;4.25;;;3.60;;
15183;SDS011;7693;49.266;7.104;2023-07-16T06:38:18;8.23;;;3.63;;
15183;SDS011;7693;49.266;7.104;2023-07-16T06:40:50;5.47;;;3.13;;
15183;SDS011;7693;49.266;7.104;2023-07-16T06:43:16;7.47;;;3.17;;
15183;SDS011;7693;49.266;7.104;2023-07-16T06:45:42;6.80;;;3.28;;
15183;SDS011;7693;49.266;7.104;2023-07-16T06:48:08;4.78;;;3.38;;
15183;SDS011;7693;49.266;7.104;2023-07-16T06:50:34;3.92;;;2.97;;
15183;SDS011;7693;49.266;7.104;2023-07-16T06:53:00;5.97;;;3.58;;
15183;SDS011;7693;49.266;7.104;2023-07-16T06:55:25;8.90;;;3.30;;
15183;SDS011;7693;49.266;7.104;2023-07-16T06:57:51;9.02;;;3.25;;
15183;SDS011;7693;49.266;7.104;2023-07-16T07:00:17;7.38;;;3.10;;
15183;SDS011;7693;49.266;7.104;2023-07-16T07:02:43;5.03;;;3.17;;
15183;SDS011;7693;49.266;7.104;2023-07-16T07:05:09;6.82;;;3.30;;
15183;SDS011;7693;49.266;7.104;2023-07-16T07:07:34;5.47;;;3.45;;
15183;SDS011;7693;49.266;7.104;2023-07-16T07:10:00;4.57;;;2.95;;
15183;SDS011;7693;49.266;7.104;2023-07-16T07:12:26;7.32;;;3.25;;
15183;SDS011;7693;49.266;7.104;2023-07-16T07:14:51;6.72;;;3.63;;
15183;SDS011;7693;49.266;7.104;2023-07-16T07:17:17;4.28;;;2.70;;
15183;SDS011;7693;49.266;7.104;2023-07-16T07:19:42;8.18;;;3.55;;
15183;SDS011;7693;49.266;7.104;2023-07-16T07:22:09;7.55;;;2.97;;
15183;SDS011;7693;49.266;7.104;2023-07-16T07:24:35;3.40;;;2.80;;
15183;SDS011;7693;49.266;7.104;2023-07-16T07:27:00;6.55;;;2.92;;
15183;SDS011;7693;49.266;7.104;2023-07-16T07:29:26;4.15;;;2.95;;
15183;SDS011;7693;49.266;7.104;2023-07-16T07:31:52;6.72;;;3.25;;
15183;SDS011;7693;49.266;7.104;2023-07-16T07:34:18;6.22;;;3.10;;
15183;SDS011;7693;49.266;7.104;2023-07-16T07:36:43;7.55;;;2.85;;
15183;SDS011;7693;49.266;7.104;2023-07-16T07:39:09;13.77;;;3.55;;
15183;SDS011;7693;49.266;7.104;2023-07-16T07:41:35;4.88;;;2.97;;
15183;SDS011;7693;49.266;7.104;2023-07-16T07:44:01;6.45;;;3.05;;
15183;SDS011;7693;49.266;7.104;2023-07-16T07:46:27;5.18;;;3.20;;
15183;SDS011;7693;49.266;7.104;2023-07-16T07:48:52;6.03;;;3.25;;
15183;SDS011;7693;49.266;7.104;2023-07-16T07:51:19;6.68;;;3.78;;
15183;SDS011;7693;49.266;7.104;2023-07-16T07:53:44;9.07;;;3.47;;
15183;SDS011;7693;49.266;7.104;2023-07-16T07:56:10;5.72;;;2.80;;
15183;SDS011;7693;49.266;7.104;2023-07-16T07:58:36;6.55;;;3.15;;
15183;SDS011;7693;49.266;7.104;2023-07-16T08:01:05;5.15;;;3.03;;
15183;SDS011;7693;49.266;7.104;2023-07-16T08:03:31;5.65;;;3.08;;
15183;SDS011;7693;49.266;7.104;2023-07-16T08:05:56;7.43;;;3.50;;
15183;SDS011;7693;49.266;7.104;2023-07-16T08:08:22;7.18;;;3.00;;
15183;SDS011;7693;49.266;7.104;2023-07-16T08:10:48;5.35;;;3.20;;
15183;SDS011;7693;49.266;7.104;2023-07-16T08:13:13;7.65;;;3.38;;
15183;SDS011;7693;49.266;7.104;2023-07-16T08:15:39;6.03;;;3.25;;
15183;SDS011;7693;49.266;7.104;2023-07-16T08:18:04;5.65;;;2.88;;
15183;SDS011;7693;49.266;7.104;2023-07-16T08:20:30;7.05;;;2.88;;
15183;SDS011;7693;49.266;7.104;2023-07-16T08:22:55;8.45;;;3.40;;
15183;SDS011;7693;49.266;7.104;2023-07-16T08:25:21;7.40;;;3.20;;
15183;SDS011;7693;49.266;7.104;2023-07-16T08:27:47;8.77;;;3.28;;
15183;SDS011;7693;49.266;7.104;2023-07-16T08:30:13;6.50;;;3.13;;
15183;SDS011;7693;49.266;7.104;2023-07-16T08:32:39;5.88;;;3.20;;
15183;SDS011;7693;49.266;7.104;2023-07-16T08:35:05;4.82;;;2.75;;
15183;SDS011;7693;49.266;7.104;2023-07-16T08:37:31;5.30;;;3.10;;
15183;SDS011;7693;49.266;7.104;2023-07-16T08:39:56;7.03;;;3.03;;
15183;SDS011;7693;49.266;7.104;2023-07-16T08:42:22;7.18;;;3.53;;
15183;SDS011;7693;49.266;7.104;2023-07-16T08:44:48;9.73;;;3.50;;
15183;SDS011;7693;49.266;7.104;2023-07-16T08:47:15;7.03;;;3.25;;
15183;SDS011;7693;49.266;7.104;2023-07-16T08:49:41;6.60;;;3.83;;
15183;SDS011;7693;49.266;7.104;2023-07-16T08:52:19;8.40;;;3.08;;
15183;SDS011;7693;49.266;7.104;2023-07-16T08:54:44;5.35;;;2.72;;
15183;SDS011;7693;49.266;7.104;2023-07-16T08:57:10;9.23;;;3.30;;
15183;SDS011;7693;49.266;7.104;2023-07-16T08:59:37;5.50;;;3.25;;
15183;SDS011;7693;49.266;7.104;2023-07-16T09:02:03;6.22;;;3.53;;
15183;SDS011;7693;49.266;7.104;2023-07-16T09:04:29;4.38;;;2.90;;
15183;SDS011;7693;49.266;7.104;2023-07-16T09:06:55;7.20;;;3.30;;
15183;SDS011;7693;49.266;7.104;2023-07-16T09:09:24;3.70;;;3.20;;
15183;SDS011;7693;49.266;7.104;2023-07-16T09:11:49;4.75;;;3.47;;
15183;SDS011;7693;49.266;7.104;2023-07-16T09:14:16;4.38;;;3.40;;
15183;SDS011;7693;49.266;7.104;2023-07-16T09:16:51;3.88;;;3.30;;
15183;SDS011;7693;49.266;7.104;2023-07-16T09:19:17;5.68;;;2.78;;
15183;SDS011;7693;49.266;7.104;2023-07-16T09:21:49;4.35;;;3.30;;
15183;SDS011;7693;49.266;7.104;2023-07-16T09:24:16;4.03;;;3.38;;
15183;SDS011;7693;49.266;7.104;2023-07-16T09:26:49;7.80;;;3.70;;
15183;SDS011;7693;49.266;7.104;2023-07-16T09:29:16;5.95;;;3.53;;
15183;SDS011;7693;49.266;7.104;2023-07-16T09:31:59;4.68;;;3.38;;
15183;SDS011;7693;49.266;7.104;2023-07-16T09:34:27;5.22;;;3.60;;
15183;SDS011;7693;49.266;7.104;2023-07-16T09:36:54;7.47;;;3.42;;
15183;SDS011;7693;49.266;7.104;2023-07-16T09:39:20;4.05;;;2.92;;
15183;SDS011;7693;49.266;7.104;2023-07-16T09:41:47;7.65;;;3.50;;
15183;SDS011;7693;49.266;7.104;2023-07-16T09:44:14;6.30;;;3.42;;
15183;SDS011;7693;49.266;7.104;2023-07-16T09:46:40;3.67;;;3.38;;
15183;SDS011;7693;49.266;7.104;2023-07-16T09:49:06;5.00;;;3.45;;
15183;SDS011;7693;49.266;7.104;2023-07-16T09:51:32;3.80;;;3.45;;
15183;SDS011;7693;49.266;7.104;2023-07-16T09:54:01;5.03;;;3.58;;
15183;SDS011;7693;49.266;7.104;2023-07-16T09:56:28;8.23;;;3.30;;
15183;SDS011;7693;49.266;7.104;2023-07-16T09:59:00;3.53;;;3.22;;
15183;SDS011;7693;49.266;7.104;2023-07-16T10:01:28;7.80;;;3.22;;
15183;SDS011;7693;49.266;7.104;2023-07-16T10:03:54;3.83;;;3.38;;
15183;SDS011;7693;49.266;7.104;2023-07-16T10:06:19;3.15;;;2.78;;
15183;SDS011;7693;49.266;7.104;2023-07-16T10:08:49;4.75;;;3.10;;
15183;SDS011;7693;49.266;7.104;2023-07-16T10:11:15;4.97;;;3.20;;
15183;SDS011;7693;49.266;7.104;2023-07-16T10:13:42;4.95;;;3.42;;
15183;SDS011;7693;49.266;7.104;2023-07-16T10:16:07;5.75;;;3.22;;
15183;SDS011;7693;49.266;7.104;2023-07-16T10:18:36;3.40;;;3.00;;
15183;SDS011;7693;49.266;7.104;2023-07-16T10:21:03;7.05;;;3.30;;
15183;SDS011;7693;49.266;7.104;2023-07-16T12:19:01;3.78;;;2.90;;
15183;SDS011;7693;49.266;7.104;2023-07-16T12:21:27;3.58;;;2.85;;
15183;SDS011;7693;49.266;7.104;2023-07-16T12:23:53;2.70;;;2.50;;
15183;SDS011;7693;49.266;7.104;2023-07-16T12:26:18;3.47;;;3.17;;
15183;SDS011;7693;49.266;7.104;2023-07-16T12:28:44;4.35;;;3.10;;
15183;SDS011;7693;49.266;7.104;2023-07-16T12:31:09;4.15;;;2.95;;
15183;SDS011;7693;49.266;7.104;2023-07-16T12:33:35;4.25;;;2.85;;
15183;SDS011;7693;49.266;7.104;2023-07-16T12:36:00;4.57;;;2.90;;
15183;SDS011;7693;49.266;7.104;2023-07-16T12:38:26;6.72;;;3.17;;
15183;SDS011;7693;49.266;7.104;2023-07-16T12:40:52;3.92;;;3.15;;
15183;SDS011;7693;49.266;7.104;2023-07-16T12:43:17;6.93;;;3.55;;
15183;SDS011;7693;49.266;7.104;2023-07-16T12:45:43;5.20;;;3.38;;
15183;SDS011;7693;49.266;7.104;2023-07-16T12:48:08;3.72;;;2.90;;
15183;SDS011;7693;49.266;7.104;2023-07-16T12:50:34;3.40;;;3.15;;
15183;SDS011;7693;49.266;7.104;2023-07-16T12:52:59;5.47;;;3.45;;
15183;SDS011;7693;49.266;7.104;2023-07-16T12:55:25;4.35;;;3.13;;
15183;SDS011;7693;49.266;7.104;2023-07-16T12:57:50;4.53;;;3.05;;
15183;SDS011;7693;49.266;7.104;2023-07-16T13:00:16;9.23;;;3.08;;
15183;SDS011;7693;49.266;7.104;2023-07-16T13:02:42;3.08;;;2.88;;
15183;SDS011;7693;49.266;7.104;2023-07-16T13:05:07;3.95;;;3.22;;
15183;SDS011;7693;49.266;7.104;2023-07-16T13:07:33;3.95;;;3.13;;
15183;SDS011;7693;49.266;7.104;2023-07-16T13:09:58;6.35;;;3.50;;
15183;SDS011;7693;49.266;7.104;2023-07-16T13:12:24;3.70;;;3.28;;
15183;SDS011;7693;49.266;7.104;2023-07-16T13:14:50;5.78;;;3.22;;
15183;SDS011;7693;49.266;7.104;2023-07-16T13:17:16;6.32;;;3.67;;
15183;SDS011;7693;49.266;7.104;2023-07-16T13:19:44;5.68;;;3.13;;
15183;SDS011;7693;49.266;7.104;2023-07-16T13:22:09;4.70;;;3.50;;
15183;SDS011;7693;49.266;7.104;2023-07-16T13:24:35;4.10;;;3.60;;
15183;SDS011;7693;49.266;7.104;2023-07-16T13:27:00;3.30;;;3.10;;
15183;SDS011;7693;49.266;7.104;2023-07-16T13:29:26;3.45;;;3.03;;
15183;SDS011;7693;49.266;7.104;2023-07-16T13:31:51;3.55;;;3.13;;
15183;SDS011;7693;49.266;7.104;2023-07-16T13:34:17;4.88;;;3.38;;
15183;SDS011;7693;49.266;7.104;2023-07-16T13:36:43;4.25;;;3.30;;
15183;SDS011;7693;49.266;7.104;2023-07-16T13:39:08;3.85;;;3.50;;
15183;SDS011;7693;49.266;7.104;2023-07-16T13:41:34;3.60;;;3.30;;
15183;SDS011;7693;49.266;7.104;2023-07-16T13:44:01;3.58;;;3.28;;
15183;SDS011;7693;49.266;7.104;2023-07-16T13:46:26;6.43;;;3.00;;
15183;SDS011;7693;49.266;7.104;2023-07-16T13:48:52;3.85;;;3.50;;
15183;SDS011;7693;49.266;7.104;2023-07-16T13:51:17;3.60;;;3.30;;
15183;SDS011;7693;49.266;7.104;2023-07-16T13:53:43;5.22;;;3.97;;
15183;SDS011;7693;49.266;7.104;2023-07-16T13:56:09;4.10;;;3.28;;
15183;SDS011;7693;49.266;7.104;2023-07-16T13:58:34;3.38;;;3.08;;
15183;SDS011;7693;49.266;7.104;2023-07-16T14:01:00;3.58;;;3.30;;
15183;SDS011;7693;49.266;7.104;2023-07-16T14:03:25;3.40;;;3.20;;
15183;SDS011;7693;49.266;7.104;2023-07-16T14:05:51;4.30;;;3.20;;
15183;SDS011;7693;49.266;7.104;2023-07-16T14:08:17;4.13;;;3.17;;
15183;SDS011;7693;49.266;7.104;2023-07-16T14:10:42;8.48;;;3.60;;
15183;SDS011;7693;49.266;7.104;2023-07-16T14:13:08;6.00;;;3.90;;
15183;SDS011;7693;49.266;7.104;2023-07-16T14:15:34;3.90;;;3.60;;
15183;SDS011;7693;49.266;7.104;2023-07-16T14:18:00;4.15;;;3.55;;
15183;SDS011;7693;49.266;7.104;2023-07-16T14:20:25;4.82;;;3.60;;
15183;SDS011;7693;49.266;7.104;2023-07-16T14:22:51;6.90;;;3.65;;
15183;SDS011;7693;49.266;7.104;2023-07-16T14:25:17;4.93;;;3.45;;
15183;SDS011;7693;49.266;7.104;2023-07-16T14:27:43;3.35;;;3.10;;
15183;SDS011;7693;49.266;7.104;2023-07-16T14:30:09;3.95;;;3.55;;
15183;SDS011;7693;49.266;7.104;2023-07-16T14:32:35;6.95;;;3.33;;
15183;SDS011;7693;49.266;7.104;2023-07-16T14:35:01;4.68;;;3.60;;
15183;SDS011;7693;49.266;7.104;2023-07-16T14:37:27;3.85;;;3.50;;
15183;SDS011;7693;49.266;7.104;2023-07-16T14:39:52;5.15;;;3.50;;
15183;SDS011;7693;49.266;7.104;2023-07-16T14:42:18;5.68;;;3.53;;
15183;SDS011;7693;49.266;7.104;2023-07-16T14:44:43;7.80;;;3.40;;
15183;SDS011;7693;49.266;7.104;2023-07-16T14:47:09;4.00;;;3.22;;
15183;SDS011;7693;49.266;7.104;2023-07-16T14:49:34;5.93;;;3.83;;
15183;SDS011;7693;49.266;7.104;2023-07-16T14:52:00;5.85;;;3.33;;
15183;SDS011;7693;49.266;7.104;2023-07-16T14:54:26;5.05;;;3.60;;
15183;SDS011;7693;49.266;7.104;2023-07-16T14:56:51;5.53;;;3.70;;
15183;SDS011;7693;49.266;7.104;2023-07-16T14:59:17;4.93;;;3.70;;
15183;SDS011;7693;49.266;7.104;2023-07-16T15:01:42;6.13;;;4.00;;
15183;SDS011;7693;49.266;7.104;2023-07-16T15:04:08;3.83;;;3.40;;
15183;SDS011;7693;49.266;7.104;2023-07-16T15:06:34;3.50;;;3.20;;
15183;SDS011;7693;49.266;7.104;2023-07-16T15:08:59;3.95;;;3.53;;
15183;SDS011;7693;49.266;7.104;2023-07-16T15:11:25;6.45;;;3.63;;
15183;SDS011;7693;49.266;7.104;2023-07-16T15:13:50;4.80;;;3.40;;
15183;SDS011;7693;49.266;7.104;2023-07-16T15:16:16;4.30;;;3.42;;
15183;SDS011;7693;49.266;7.104;2023-07-16T15:18:42;5.82;;;3.28;;
15183;SDS011;7693;49.266;7.104;2023-07-16T15:21:08;3.42;;;3.13;;
15183;SDS011;7693;49.266;7.104;2023-07-16T15:23:33;4.82;;;3.38;;
15183;SDS011;7693;49.266;7.104;2023-07-16T15:26:02;5.47;;;3.38;;
15183;SDS011;7693;49.266;7.104;2023-07-16T15:28:30;3.17;;;2.97;;
15183;SDS011;7693;49.266;7.104;2023-07-16T15:30:59;3.85;;;3.58;;
15183;SDS011;7693;49.266;7.104;2023-07-16T15:33:25;5.75;;;3.35;;
15183;SDS011;7693;49.266;7.104;2023-07-16T15:35:51;8.40;;;3.25;;
15183;SDS011;7693;49.266;7.104;2023-07-16T15:38:16;3.85;;;3.50;;
15183;SDS011;7693;49.266;7.104;2023-07-16T15:40:42;3.75;;;3.38;;
15183;SDS011;7693;49.266;7.104;2023-07-16T15:43:08;5.32;;;3.28;;
15183;SDS011;7693;49.266;7.104;2023-07-16T15:45:34;6.63;;;3.20;;
15183;SDS011;7693;49.266;7.104;2023-07-16T15:47:59;3.88;;;3.58;;
15183;SDS011;7693;49.266;7.104;2023-07-16T15:50:26;4.78;;;3.35;;
15183;SDS011;7693;49.266;7.104;2023-07-16T15:52:53;3.58;;;3.33;;
15183;SDS011;7693;49.266;7.104;2023-07-16T15:55:20;5.68;;;3.70;;
15183;SDS011;7693;49.266;7.104;2023-07-16T15:57:47;3.40;;;3.17;;
15183;SDS011;7693;49.266;7.104;2023-07-16T16:00:13;6.25;;;3.35;;
15183;SDS011;7693;49.266;7.104;2023-07-16T16:02:41;5.35;;;3.58;;
15183;SDS011;7693;49.266;7.104;2023-07-16T16:05:08;3.42;;;3.13;;
15183;SDS011;7693;49.266;7.104;2023-07-16T16:07:34;4.78;;;3.40;;
15183;SDS011;7693;49.266;7.104;2023-07-16T16:10:01;3.65;;;3.35;;
15183;SDS011;7693;49.266;7.104;2023-07-16T16:12:27;4.35;;;3.45;;
15183;SDS011;7693;49.266;7.104;2023-07-16T16:14:53;3.38;;;3.03;;
15183;SDS011;7693;49.266;7.104;2023-07-16T16:17:20;3.60;;;3.30;;
15183;SDS011;7693;49.266;7.104;2023-07-16T16:19:46;4.60;;;3.55;;
15183;SDS011;7693;49.266;7.104;2023-07-16T16:22:12;4.25;;;3.80;;
15183;SDS011;7693;49.266;7.104;2023-07-16T16:24:37;5.85;;;3.50;;
15183;SDS011;7693;49.266;7.104;2023-07-16T16:27:03;7.75;;;3.75;;
15183;SDS011;7693;49.266;7.104;2023-07-16T16:29:29;5.28;;;3.95;;
15183;SDS011;7693;49.266;7.104;2023-07-16T16:31:55;3.63;;;3.35;;
15183;SDS011;7693;49.266;7.104;2023-07-16T16:34:20;4.57;;;3.78;;
15183;SDS011;7693;49.266;7.104;2023-07-16T16:36:46;3.47;;;3.28;;
15183;SDS011;7693;49.266;7.104;2023-07-16T16:39:11;6.00;;;3.40;;
15183;SDS011;7693;49.266;7.104;2023-07-16T16:41:37;6.20;;;3.97;;
15183;SDS011;7693;49.266;7.104;2023-07-16T16:44:03;4.13;;;3.78;;
15183;SDS011;7693;49.266;7.104;2023-07-16T16:46:29;4.13;;;3.83;;
15183;SDS011;7693;49.266;7.104;2023-07-16T16:48:54;5.05;;;3.97;;
15183;SDS011;7693;49.266;7.104;2023-07-16T16:51:20;3.47;;;3.17;;
15183;SDS011;7693;49.266;7.104;2023-07-16T16:53:48;5.55;;;3.55;;
15183;SDS011;7693;49.266;7.104;2023-07-16T16:56:14;4.47;;;3.30;;
15183;SDS011;7693;49.266;7.104;2023-07-16T16:58:40;6.05;;;4.28;;
15183;SDS011;7693;49.266;7.104;2023-07-16T17:01:06;10.98;;;3.90;;
15183;SDS011;7693;49.266;7.104;2023-07-16T17:03:31;5.43;;;3.80;;
15183;SDS011;7693;49.266;7.104;2023-07-16T17:05:57;6.65;;;3.85;;
15183;SDS011;7693;49.266;7.104;2023-07-16T17:08:25;5.97;;;4.03;;
15183;SDS011;7693;49.266;7.104;2023-07-16T17:10:52;4.22;;;3.38;;
15183;SDS011;7693;49.266;7.104;2023-07-16T17:13:18;6.32;;;3.50;;
15183;SDS011;7693;49.266;7.104;2023-07-16T17:15:47;5.07;;;3.78;;
15183;SDS011;7693;49.266;7.104;2023-07-16T17:18:14;3.88;;;3.45;;
15183;SDS011;7693;49.266;7.104;2023-07-16T17:20:40;4.13;;;3.80;;
15183;SDS011;7693;49.266;7.104;2023-07-16T17:23:06;5.45;;;4.10;;
15183;SDS011;7693;49.266;7.104;2023-07-16T17:25:32;4.28;;;3.75;;
15183;SDS011;7693;49.266;7.104;2023-07-16T17:27:57;4.75;;;4.20;;
15183;SDS011;7693;49.266;7.104;2023-07-16T17:30:23;5.00;;;4.50;;
15183;SDS011;7693;49.266;7.104;2023-07-16T17:32:49;5.53;;;3.63;;
15183;SDS011;7693;49.266;7.104;2023-07-16T17:35:15;6.80;;;4.00;;
15183;SDS011;7693;49.266;7.104;2023-07-16T17:37:40;5.50;;;3.75;;
15183;SDS011;7693;49.266;7.104;2023-07-16T17:40:06;4.80;;;3.70;;
15183;SDS011;7693;49.266;7.104;2023-07-16T17:42:36;6.03;;;4.78;;
15183;SDS011;7693;49.266;7.104;2023-07-16T17:45:04;4.88;;;4.45;;
15183;SDS011;7693;49.266;7.104;2023-07-16T17:47:30;4.20;;;3.58;;
15183;SDS011;7693;49.266;7.104;2023-07-16T17:49:56;5.03;;;3.90;;
15183;SDS011;7693;49.266;7.104;2023-07-16T17:52:22;4.18;;;3.88;;
15183;SDS011;7693;49.266;7.104;2023-07-16T17:54:48;4.38;;;3.88;;
15183;SDS011;7693;49.266;7.104;2023-07-16T17:57:13;5.88;;;3.70;;
15183;SDS011;7693;49.266;7.104;2023-07-16T17:59:39;3.72;;;3.47;;
15183;SDS011;7693;49.266;7.104;2023-07-16T18:02:05;5.38;;;3.65;;
15183;SDS011;7693;49.266;7.104;2023-07-16T18:04:30;5.45;;;3.95;;
15183;SDS011;7693;49.266;7.104;2023-07-16T18:06:56;4.40;;;3.72;;
15183;SDS011;7693;49.266;7.104;2023-07-16T18:09:21;6.72;;;3.63;;
15183;SDS011;7693;49.266;7.104;2023-07-16T18:11:48;5.53;;;3.67;;
15183;SDS011;7693;49.266;7.104;2023-07-16T18:14:14;8.65;;;4.20;;
15183;SDS011;7693;49.266;7.104;2023-07-16T18:16:40;4.95;;;3.97;;
15183;SDS011;7693;49.266;7.104;2023-07-16T18:19:06;5.35;;;3.90;;
15183;SDS011;7693;49.266;7.104;2023-07-16T18:21:35;3.90;;;3.67;;
15183;SDS011;7693;49.266;7.104;2023-07-16T18:24:01;4.55;;;4.15;;
15183;SDS011;7693;49.266;7.104;2023-07-16T18:26:27;6.18;;;3.80;;
15183;SDS011;7693;49.266;7.104;2023-07-16T18:28:53;6.20;;;4.18;;
15183;SDS011;7693;49.266;7.104;2023-07-16T18:31:19;4.32;;;4.03;;
15183;SDS011;7693;49.266;7.104;2023-07-16T18:33:46;5.75;;;4.47;;
15183;SDS011;7693;49.266;7.104;2023-07-16T18:36:11;5.25;;;4.10;;
15183;SDS011;7693;49.266;7.104;2023-07-16T18:38:37;6.35;;;4.35;;
15183;SDS011;7693;49.266;7.104;2023-07-16T18:41:03;4.85;;;4.47;;
15183;SDS011;7693;49.266;7.104;2023-07-16T18:43:29;6.95;;;4.60;;
15183;SDS011;7693;49.266;7.104;2023-07-16T18:45:54;4.60;;;4.20;;
15183;SDS011;7693;49.266;7.104;2023-07-16T18:48:20;8.48;;;3.92;;
15183;SDS011;7693;49.266;7.104;2023-07-16T18:50:45;4.47;;;4.15;;
15183;SDS011;7693;49.266;7.104;2023-07-16T18:53:11;6.63;;;4.22;;
15183;SDS011;7693;49.266;7.104;2023-07-16T18:55:36;5.70;;;4.25;;
15183;SDS011;7693;49.266;7.104;2023-07-16T18:58:02;6.18;;;4.75;;
15183;SDS011;7693;49.266;7.104;2023-07-16T19:00:28;4.90;;;4.25;;
15183;SDS011;7693;49.266;7.104;2023-07-16T19:02:54;4.43;;;4.13;;
15183;SDS011;7693;49.266;7.104;2023-07-16T19:05:20;4.38;;;4.07;;
15183;SDS011;7693;49.266;7.104;2023-07-16T19:07:45;4.95;;;3.97;;
15183;SDS011;7693;49.266;7.104;2023-07-16T19:10:11;5.72;;;3.97;;
15183;SDS011;7693;49.266;7.104;2023-07-16T19:12:37;5.65;;;4.43;;
15183;SDS011;7693;49.266;7.104;2023-07-16T19:15:03;6.45;;;4.65;;
15183;SDS011;7693;49.266;7.104;2023-07-16T19:17:29;7.47;;;4.75;;
15183;SDS011;7693;49.266;7.104;2023-07-16T19:19:55;4.75;;;4.35;;
15183;SDS011;7693;49.266;7.104;2023-07-16T19:22:22;7.35;;;4.45;;
15183;SDS011;7693;49.266;7.104;2023-07-16T19:24:49;5.57;;;4.70;;
15183;SDS011;7693;49.266;7.104;2023-07-16T19:27:14;4.85;;;4.47;;
15183;SDS011;7693;49.266;7.104;2023-07-16T19:29:40;4.80;;;4.40;;
15183;SDS011;7693;49.266;7.104;2023-07-16T19:32:06;5.47;;;4.95;;
15183;SDS011;7693;49.266;7.104;2023-07-16T19:34:32;5.82;;;4.68;;
15183;SDS011;7693;49.266;7.104;2023-07-16T19:36:59;5.40;;;4.85;;
15183;SDS011;7693;49.266;7.104;2023-07-16T19:39:27;5.28;;;4.75;;
15183;SDS011;7693;49.266;7.104;2023-07-16T19:41:53;4.68;;;4.28;;
15183;SDS011;7693;49.266;7.104;2023-07-16T19:44:19;5.22;;;4.30;;
15183;SDS011;7693;49.266;7.104;2023-07-16T19:46:44;4.93;;;4.53;;
15183;SDS011;7693;49.266;7.104;2023-07-16T19:49:10;4.60;;;4.30;;
15183;SDS011;7693;49.266;7.104;2023-07-16T19:51:35;4.80;;;4.30;;
15183;SDS011;7693;49.266;7.104;2023-07-16T19:54:01;4.85;;;4.43;;
15183;SDS011;7693;49.266;7.104;2023-07-16T19:56:26;5.20;;;4.70;;
15183;SDS011;7693;49.266;7.104;2023-07-16T19:58:56;5.85;;;4.40;;
15183;SDS011;7693;49.266;7.104;2023-07-16T20:01:21;6.65;;;4.72;;
15183;SDS011;7693;49.266;7.104;2023-07-16T20:03:47;4.93;;;4.22;;
15183;SDS011;7693;49.266;7.104;2023-07-16T20:06:12;5.78;;;4.03;;
15183;SDS011;7693;49.266;7.104;2023-07-16T20:08:38;5.55;;;4.30;;
15183;SDS011;7693;49.266;7.104;2023-07-16T20:11:05;5.03;;;4.35;;
15183;SDS011;7693;49.266;7.104;2023-07-16T20:13:30;4.50;;;4.20;;
15183;SDS011;7693;49.266;7.104;2023-07-16T20:15:56;6.10;;;4.95;;
15183;SDS011;7693;49.266;7.104;2023-07-16T20:18:21;6.40;;;4.75;;
15183;SDS011;7693;49.266;7.104;2023-07-16T20:20:47;5.38;;;4.47;;
15183;SDS011;7693;49.266;7.104;2023-07-16T20:23:13;4.93;;;4.45;;
15183;SDS011;7693;49.266;7.104;2023-07-16T20:25:38;5.25;;;4.75;;
15183;SDS011;7693;49.266;7.104;2023-07-16T20:28:09;5.43;;;4.90;;
15183;SDS011;7693;49.266;7.104;2023-07-16T20:30:39;5.00;;;4.50;;
15183;SDS011;7693;49.266;7.104;2023-07-16T20:33:07;5.35;;;4.85;;
15183;SDS011;7693;49.266;7.104;2023-07-16T20:35:33;4.88;;;4.47;;
15183;SDS011;7693;49.266;7.104;2023-07-16T20:37:58;6.78;;;5.70;;
15183;SDS011;7693;49.266;7.104;2023-07-16T20:40:24;6.18;;;5.57;;
15183;SDS011;7693;49.266;7.104;2023-07-16T20:42:49;5.07;;;4.78;;
15183;SDS011;7693;49.266;7.104;2023-07-16T20:45:18;5.00;;;4.60;;
15183;SDS011;7693;49.266;7.104;2023-07-16T20:47:52;5.05;;;4.65;;
15183;SDS011;7693;49.266;7.104;2023-07-16T20:50:21;7.43;;;4.50;;
15183;SDS011;7693;49.266;7.104;2023-07-16T20:52:51;5.10;;;4.55;;
15183;SDS011;7693;49.266;7.104;2023-07-16T20:55:18;6.05;;;4.90;;
15183;SDS011;7693;49.266;7.104;2023-07-16T20:57:44;5.25;;;4.32;;
15183;SDS011;7693;49.266;7.104;2023-07-16T21:00:12;7.03;;;5.00;;
15183;SDS011;7693;49.266;7.104;2023-07-16T21:02:49;5.72;;;5.22;;
15183;SDS011;7693;49.266;7.104;2023-07-16T21:05:16;6.15;;;4.60;;
15183;SDS011;7693;49.266;7.104;2023-07-16T21:07:42;6.93;;;5.45;;
15183;SDS011;7693;49.266;7.104;2023-07-16T21:10:09;6.55;;;4.85;;
15183;SDS011;7693;49.266;7.104;2023-07-16T21:12:36;5.82;;;5.18;;
15183;SDS011;7693;49.266;7.104;2023-07-16T21:15:05;6.60;;;4.72;;
15183;SDS011;7693;49.266;7.104;2023-07-16T21:17:34;5.85;;;4.55;;
15183;SDS011;7693;49.266;7.104;2023-07-16T21:19:59;5.28;;;4.78;;
15183;SDS011;7693;49.266;7.104;2023-07-16T21:22:26;6.25;;;4.85;;
15183;SDS011;7693;49.266;7.104;2023-07-16T21:24:52;5.35;;;4.82;;
15183;SDS011;7693;49.266;7.104;2023-07-16T21:27:23;5.80;;;5.30;;